createdAt,value
2022-10-11T00:00:38.977Z,13.85
2022-10-11T00:01:39.683Z,13.87
2022-10-11T00:02:39.285Z,13.89
2022-10-11T00:03:39.038Z,13.89
2022-10-11T00:04:39.062Z,13.9
2022-10-11T00:05:39.345Z,13.79
2022-10-11T00:06:39.087Z,13.85
2022-10-11T00:07:45.383Z,13.87
2022-10-11T00:08:39.127Z,13.78
2022-10-11T00:09:39.410Z,13.78
2022-10-11T00:10:39.473Z,13.87
2022-10-11T00:11:39.178Z,13.77
2022-10-11T00:12:39.456Z,13.77
2022-10-11T00:13:39.326Z,13.74
2022-10-11T00:14:39.502Z,13.74
2022-10-11T00:15:38.998Z,13.75
2022-10-11T00:16:39.535Z,13.72
2022-10-11T00:17:39.575Z,13.77
2022-10-11T00:18:39.050Z,13.72
2022-10-11T00:19:39.328Z,13.77
2022-10-11T00:20:39.343Z,13.83
2022-10-11T00:21:39.360Z,13.72
2022-10-11T00:22:39.378Z,13.74
2022-10-11T00:23:39.653Z,13.72
2022-10-11T00:24:39.676Z,13.79
2022-10-11T00:25:39.452Z,13.71
2022-10-11T00:26:42.120Z,13.75
2022-10-11T00:27:39.732Z,13.77
2022-10-11T00:28:39.770Z,13.77
2022-10-11T00:29:39.774Z,13.77
2022-10-11T00:30:40.003Z,13.79
2022-10-11T00:31:40.561Z,13.72
2022-10-11T00:32:39.563Z,13.71
2022-10-11T00:33:39.896Z,13.71
2022-10-11T00:34:39.833Z,13.74
2022-10-11T00:35:39.612Z,13.62
2022-10-11T00:36:39.886Z,13.71
2022-10-11T00:37:39.909Z,13.67
2022-10-11T00:38:39.652Z,13.63
2022-10-11T00:39:39.699Z,13.7
2022-10-11T00:40:39.959Z,13.67
2022-10-11T00:41:39.723Z,13.63
2022-10-11T00:42:40.044Z,13.67
2022-10-11T00:43:39.491Z,13.7
2022-10-11T00:44:40.030Z,13.6
2022-10-11T00:45:40.048Z,13.63
2022-10-11T00:46:39.807Z,13.59
2022-10-11T00:47:39.574Z,13.62
2022-10-11T00:48:39.839Z,13.53
2022-10-11T00:49:40.141Z,13.52
2022-10-11T00:50:39.616Z,13.52
2022-10-11T00:51:40.152Z,13.62
2022-10-11T00:52:39.910Z,13.57
2022-10-11T00:53:40.193Z,13.53
2022-10-11T00:54:39.943Z,13.5
2022-10-11T00:55:39.970Z,13.57
2022-10-11T00:56:39.986Z,13.47
2022-10-11T00:57:40.006Z,13.53
2022-10-11T00:58:40.318Z,13.46
2022-10-11T00:59:40.038Z,13.53
2022-10-11T01:00:40.066Z,13.53
2022-10-11T01:01:40.288Z,13.52
2022-10-11T01:02:40.091Z,13.46
2022-10-11T01:03:40.119Z,13.42
2022-10-11T01:04:40.383Z,13.49
2022-10-11T01:05:40.419Z,13.41
2022-10-11T01:06:40.157Z,13.49
2022-10-11T01:07:40.188Z,13.44
2022-10-11T01:08:40.192Z,13.47
2022-10-11T01:09:40.473Z,13.49
2022-10-11T01:10:40.482Z,13.35
2022-10-11T01:11:40.259Z,13.35
2022-10-11T01:12:40.516Z,13.37
2022-10-11T01:13:40.758Z,13.41
2022-10-11T01:14:40.615Z,13.41
2022-10-11T01:15:40.321Z,13.44
2022-10-11T01:16:40.588Z,13.39
2022-10-11T01:17:40.617Z,13.31
2022-10-11T01:18:40.626Z,13.39
2022-10-11T01:19:40.642Z,13.35
2022-10-11T01:20:40.400Z,13.39
2022-10-11T01:21:40.705Z,13.37
2022-10-11T01:22:40.183Z,13.27
2022-10-11T01:23:40.451Z,13.28
2022-10-11T01:24:40.726Z,13.38
2022-10-11T01:25:40.495Z,13.25
2022-10-11T01:26:40.771Z,13.3
2022-10-11T01:27:40.789Z,13.31
2022-10-11T01:28:41.010Z,13.37
2022-10-11T01:29:40.820Z,13.27
2022-10-11T01:30:40.892Z,13.25
2022-10-11T01:31:40.599Z,13.28
2022-10-11T01:32:40.605Z,13.27
2022-10-11T01:33:40.631Z,13.31
2022-10-11T01:34:40.651Z,13.22
2022-10-11T01:35:40.663Z,13.25
2022-10-11T01:36:40.686Z,13.28
2022-10-11T01:37:40.719Z,13.2
2022-10-11T01:38:40.470Z,13.22
2022-10-11T01:39:40.485Z,13.27
2022-10-11T01:40:41.018Z,13.22
2022-10-11T01:41:41.026Z,13.2
2022-10-11T01:42:40.780Z,13.23
2022-10-11T01:43:41.057Z,13.15
2022-10-11T01:44:41.075Z,13.18
2022-10-11T01:45:40.849Z,13.16
2022-10-11T01:46:40.914Z,13.13
2022-10-11T01:47:40.877Z,13.12
2022-10-11T01:48:40.667Z,13.11
2022-10-11T01:49:40.921Z,13.12
2022-10-11T01:50:41.186Z,13.22
2022-10-11T01:51:44.035Z,13.12
2022-10-11T01:52:41.216Z,13.18
2022-10-11T01:53:41.292Z,13.19
2022-10-11T01:55:12.926Z,13.16
2022-10-11T01:55:41.283Z,13.12
2022-10-11T01:56:41.289Z,13.09
2022-10-11T01:57:41.324Z,13.05
2022-10-11T01:58:41.058Z,13.12
2022-10-11T01:59:41.087Z,13.12
2022-10-11T02:00:41.142Z,13.15
2022-10-11T02:01:41.452Z,13.09
2022-10-11T02:02:41.467Z,13.11
2022-10-11T02:03:41.153Z,13.05
2022-10-11T02:04:41.426Z,13.09
2022-10-11T02:05:41.443Z,13.08
2022-10-11T02:06:41.209Z,13.04
2022-10-11T02:07:41.478Z,13.09
2022-10-11T02:08:41.247Z,13.05
2022-10-11T02:09:41.280Z,13.09
2022-10-11T02:10:41.278Z,13.08
2022-10-11T02:11:41.610Z,13.05
2022-10-11T02:12:41.570Z,13.01
2022-10-11T02:13:41.677Z,13.05
2022-10-11T02:14:41.607Z,13.09
2022-10-11T02:15:41.617Z,13.05
2022-10-11T02:16:41.384Z,13.05
2022-10-11T02:17:41.391Z,13.08
2022-10-11T02:18:41.723Z,12.98
2022-10-11T02:19:41.438Z,13.03
2022-10-11T02:20:41.197Z,13.03
2022-10-11T02:21:41.726Z,13
2022-10-11T02:22:41.226Z,13.05
2022-10-11T02:23:41.497Z,13.03
2022-10-11T02:24:41.517Z,12.98
2022-10-11T02:25:41.829Z,12.98
2022-10-11T02:26:41.816Z,13.03
2022-10-11T02:27:41.835Z,12.97
2022-10-11T02:28:42.149Z,13.01
2022-10-11T02:29:41.607Z,12.94
2022-10-11T02:30:41.623Z,12.98
2022-10-11T02:31:41.900Z,13
2022-10-11T02:32:41.412Z,12.98
2022-10-11T02:33:41.931Z,13
2022-10-11T02:34:41.738Z,13.03
2022-10-11T02:35:41.713Z,12.98
2022-10-11T02:36:41.739Z,13.03
2022-10-11T02:37:42.006Z,12.97
2022-10-11T02:38:42.015Z,13
2022-10-11T02:39:42.038Z,12.98
2022-10-11T02:40:42.053Z,13.05
2022-10-11T02:41:42.097Z,13.04
2022-10-11T02:42:42.100Z,12.97
2022-10-11T02:43:42.280Z,13.03
2022-10-11T02:44:42.129Z,13.01
2022-10-11T02:45:42.144Z,13.01
2022-10-11T02:46:41.641Z,13.04
2022-10-11T02:47:41.933Z,13
2022-10-11T02:48:41.932Z,13.04
2022-10-11T02:49:42.466Z,13
2022-10-11T02:50:42.280Z,13.03
2022-10-11T02:51:41.982Z,13.01
2022-10-11T02:52:41.926Z,13.03
2022-10-11T02:53:42.299Z,13.03
2022-10-11T02:54:42.033Z,13.01
2022-10-11T02:55:42.055Z,13
2022-10-11T02:56:42.088Z,12.98
2022-10-11T02:57:42.115Z,13.04
2022-10-11T02:58:42.362Z,13.05
2022-10-11T02:59:42.381Z,13.05
2022-10-11T03:00:42.402Z,13.09
2022-10-11T03:01:42.746Z,12.98
2022-10-11T03:02:42.431Z,13.05
2022-10-11T03:03:42.199Z,13.11
2022-10-11T03:04:42.473Z,13.03
2022-10-11T03:05:42.487Z,13.05
2022-10-11T03:06:42.303Z,13.04
2022-10-11T03:07:42.006Z,13.05
2022-10-11T03:08:42.298Z,13.03
2022-10-11T03:09:42.552Z,13.08
2022-10-11T03:10:42.576Z,13.08
2022-10-11T03:11:42.329Z,13.04
2022-10-11T03:12:42.094Z,13.05
2022-10-11T03:13:42.753Z,13.04
2022-10-11T03:14:42.411Z,13.05
2022-10-11T03:15:42.646Z,13.04
2022-10-11T03:16:42.425Z,13.09
2022-10-11T03:17:42.429Z,13.01
2022-10-11T03:18:42.477Z,13.04
2022-10-11T03:19:42.735Z,13.08
2022-10-11T03:20:42.760Z,13.08
2022-10-11T03:21:42.507Z,13.05
2022-10-11T03:22:42.832Z,13.05
2022-10-11T03:23:42.822Z,13.01
2022-10-11T03:24:42.813Z,12.98
2022-10-11T03:25:42.825Z,13.05
2022-10-11T03:26:42.849Z,13.01
2022-10-11T03:27:42.348Z,13.09
2022-10-11T03:28:42.800Z,13.08
2022-10-11T03:29:42.919Z,13.04
2022-10-11T03:30:42.656Z,13.05
2022-10-11T03:31:42.416Z,13.09
2022-10-11T03:32:42.696Z,13.09
2022-10-11T03:33:42.970Z,13.05
2022-10-11T03:34:42.725Z,13.04
2022-10-11T03:35:43.021Z,13.04
2022-10-11T03:36:43.027Z,13.05
2022-10-11T03:37:43.041Z,13.12
2022-10-11T03:38:43.123Z,13.11
2022-10-11T03:39:43.076Z,13.09
2022-10-11T03:40:42.573Z,13.08
2022-10-11T03:41:43.111Z,13.05
2022-10-11T03:42:42.874Z,13.05
2022-10-11T03:43:42.899Z,13.05
2022-10-11T03:44:43.162Z,13.12
2022-10-11T03:45:42.942Z,13.13
2022-10-11T03:46:43.198Z,13.05
2022-10-11T03:47:43.209Z,13.11
2022-10-11T03:48:42.717Z,13.05
2022-10-11T03:49:47.977Z,13.12
2022-10-11T03:50:43.004Z,13.13
2022-10-11T03:51:42.764Z,13.04
2022-10-11T03:52:43.047Z,13.18
2022-10-11T03:53:43.063Z,13.05
2022-10-11T03:54:43.397Z,13.12
2022-10-11T03:55:42.847Z,13.12
2022-10-11T03:56:43.375Z,13.11
2022-10-11T03:57:43.388Z,13.12
2022-10-11T03:58:43.405Z,13.05
2022-10-11T03:59:43.174Z,13.11
2022-10-11T04:00:43.451Z,13.04
2022-10-11T04:01:43.422Z,13.09
2022-10-11T04:02:44.006Z,13.13
2022-10-11T04:03:43.497Z,13.12
2022-10-11T04:04:43.247Z,13.15
2022-10-11T04:05:43.528Z,13.09
2022-10-11T04:06:43.280Z,13.11
2022-10-11T04:07:43.303Z,13.13
2022-10-11T04:08:43.578Z,13.13
2022-10-11T04:09:43.332Z,13.15
2022-10-11T04:10:43.659Z,13.13
2022-10-11T04:11:43.632Z,13.11
2022-10-11T04:12:43.649Z,13.15
2022-10-11T04:13:43.765Z,13.15
2022-10-11T04:14:43.679Z,13.11
2022-10-11T04:15:43.729Z,13.11
2022-10-11T04:16:43.470Z,13.16
2022-10-11T04:17:43.776Z,13.19
2022-10-11T04:18:43.753Z,13.15
2022-10-11T04:19:43.776Z,13.13
2022-10-11T04:20:43.530Z,13.16
2022-10-11T04:21:43.556Z,13.15
2022-10-11T04:22:43.568Z,13.16
2022-10-11T04:23:43.880Z,13.16
2022-10-11T04:24:43.591Z,13.13
2022-10-11T04:25:43.880Z,13.13
2022-10-11T04:26:43.952Z,13.12
2022-10-11T04:27:43.733Z,13.09
2022-10-11T04:28:43.941Z,13.11
2022-10-11T04:29:43.961Z,13.13
2022-10-11T04:30:43.965Z,13.15
2022-10-11T04:31:43.987Z,13.11
2022-10-11T04:32:43.734Z,13.16
2022-10-11T04:33:43.779Z,13.09
2022-10-11T04:34:43.508Z,13.13
2022-10-11T04:35:44.046Z,13.12
2022-10-11T04:36:49.851Z,13.12
2022-10-11T04:37:43.824Z,13.12
2022-10-11T04:38:44.090Z,13.15
2022-10-11T04:39:43.858Z,13.18
2022-10-11T04:40:43.609Z,13.18
2022-10-11T04:41:44.150Z,13.15
2022-10-11T04:42:44.211Z,13.11
2022-10-11T04:43:44.179Z,13.16
2022-10-11T04:44:43.673Z,13.05
2022-10-11T04:45:44.227Z,13.09
2022-10-11T04:46:43.713Z,13.05
2022-10-11T04:47:43.993Z,13.11
2022-10-11T04:48:44.160Z,13.19
2022-10-11T04:49:44.313Z,13.08
2022-10-11T04:50:44.047Z,13.16
2022-10-11T04:51:43.801Z,13.03
2022-10-11T04:52:44.077Z,13.15
2022-10-11T04:53:44.358Z,13.03
2022-10-11T04:54:44.125Z,13.12
2022-10-11T04:55:44.133Z,13.09
2022-10-11T04:56:43.891Z,13.11
2022-10-11T04:57:44.162Z,13.08
2022-10-11T04:58:44.617Z,13.11
2022-10-11T04:59:50.277Z,13.11
2022-10-11T05:00:44.220Z,13.05
2022-10-11T05:01:44.435Z,13.16
2022-10-11T05:02:44.515Z,13.08
2022-10-11T05:03:44.523Z,13.01
2022-10-11T05:04:44.035Z,13.09
2022-10-11T05:05:44.599Z,13.05
2022-10-11T05:06:44.578Z,13.11
2022-10-11T05:07:44.590Z,13.12
2022-10-11T05:08:44.619Z,13.13
2022-10-11T05:09:44.638Z,13.13
2022-10-11T05:10:44.392Z,13.03
2022-10-11T05:11:44.670Z,13.05
2022-10-11T05:12:44.683Z,13.05
2022-10-11T05:13:44.649Z,13.04
2022-10-11T05:14:44.772Z,13.05
2022-10-11T05:15:44.487Z,13.01
2022-10-11T05:16:44.498Z,13.04
2022-10-11T05:17:44.771Z,13.08
2022-10-11T05:18:44.529Z,13.04
2022-10-11T05:19:44.556Z,13.11
2022-10-11T05:20:44.572Z,13.11
2022-10-11T05:21:44.681Z,13.08
2022-10-11T05:22:44.603Z,13.09
2022-10-11T05:23:44.629Z,13.04
2022-10-11T05:24:44.641Z,13.08
2022-10-11T05:25:44.652Z,13.04
2022-10-11T05:26:44.669Z,13.09
2022-10-11T05:27:44.691Z,13.13
2022-10-11T05:28:45.015Z,13.04
2022-10-11T05:29:44.993Z,13.08
2022-10-11T05:30:45.045Z,13.05
2022-10-11T05:31:44.765Z,13.08
2022-10-11T05:32:45.046Z,13.11
2022-10-11T05:33:45.064Z,13.05
2022-10-11T05:34:45.079Z,13.05
2022-10-11T05:35:44.829Z,13.11
2022-10-11T05:36:45.101Z,13.09
2022-10-11T05:37:44.989Z,13.09
2022-10-11T05:38:44.639Z,13.03
2022-10-11T05:39:45.152Z,13.04
2022-10-11T05:40:45.178Z,13.05
2022-10-11T05:41:45.190Z,13.01
2022-10-11T05:42:44.950Z,13.08
2022-10-11T05:43:45.234Z,13
2022-10-11T05:44:44.739Z,13.09
2022-10-11T05:45:45.014Z,13.09
2022-10-11T05:46:45.319Z,13.13
2022-10-11T05:47:44.787Z,13.09
2022-10-11T05:48:45.059Z,13.05
2022-10-11T05:49:45.078Z,13
2022-10-11T05:50:45.104Z,13
2022-10-11T05:51:45.107Z,13.05
2022-10-11T05:52:45.119Z,13.04
2022-10-11T05:53:45.423Z,13.09
2022-10-11T05:54:45.154Z,13.11
2022-10-11T05:55:45.182Z,13.15
2022-10-11T05:56:45.201Z,13.03
2022-10-11T05:57:45.479Z,13
2022-10-11T05:58:45.234Z,13.15
2022-10-11T05:59:45.500Z,13.09
2022-10-11T06:00:45.556Z,13.12
2022-10-11T06:01:45.787Z,13.04
2022-10-11T06:02:45.750Z,13.12
2022-10-11T06:03:45.578Z,13.13
2022-10-11T06:04:45.082Z,13.04
2022-10-11T06:05:45.605Z,13.11
2022-10-11T06:06:45.366Z,13.13
2022-10-11T06:07:45.640Z,13.08
2022-10-11T06:08:45.411Z,13.05
2022-10-11T06:09:45.706Z,13.05
2022-10-11T06:10:45.441Z,13.09
2022-10-11T06:11:45.465Z,13.03
2022-10-11T06:12:45.830Z,13.08
2022-10-11T06:13:45.432Z,13.09
2022-10-11T06:14:45.514Z,13.09
2022-10-11T06:15:45.525Z,13.04
2022-10-11T06:16:45.284Z,13.05
2022-10-11T06:17:45.819Z,13.08
2022-10-11T06:18:45.627Z,13.05
2022-10-11T06:19:45.848Z,13.05
2022-10-11T06:20:45.616Z,13.11
2022-10-11T06:21:45.633Z,13.08
2022-10-11T06:22:45.934Z,13.13
2022-10-11T06:23:45.668Z,13.05
2022-10-11T06:24:45.934Z,13.09
2022-10-11T06:25:45.990Z,13.01
2022-10-11T06:26:45.722Z,13.03
2022-10-11T06:27:45.999Z,13.03
2022-10-11T06:28:45.961Z,13.05
2022-10-11T06:29:46.022Z,13.11
2022-10-11T06:30:45.781Z,13.03
2022-10-11T06:31:45.548Z,13.04
2022-10-11T06:32:46.071Z,13.12
2022-10-11T06:33:45.835Z,13.11
2022-10-11T06:34:45.913Z,13.08
2022-10-11T06:35:45.991Z,13.11
2022-10-11T06:36:46.155Z,13.09
2022-10-11T06:37:45.898Z,13.11
2022-10-11T06:38:49.688Z,13.12
2022-10-11T06:39:45.943Z,13.05
2022-10-11T06:40:46.224Z,13.09
2022-10-11T06:41:46.259Z,13.08
2022-10-11T06:42:46.258Z,13.13
2022-10-11T06:43:46.007Z,13.03
2022-10-11T06:44:46.287Z,13.16
2022-10-11T06:45:46.046Z,13.12
2022-10-11T06:46:45.806Z,13.08
2022-10-11T06:47:46.346Z,13.18
2022-10-11T06:48:46.120Z,13.12
2022-10-11T06:49:46.381Z,13.16
2022-10-11T06:51:04.583Z,13.13
2022-10-11T06:51:46.408Z,13.09
2022-10-11T06:52:46.171Z,13.18
2022-10-11T06:53:46.444Z,13.13
2022-10-11T06:54:49.819Z,13.12
2022-10-11T06:55:46.218Z,13.16
2022-10-11T06:56:46.513Z,13.13
2022-10-11T06:57:46.547Z,13.16
2022-10-11T06:58:46.275Z,13.16
2022-10-11T06:59:46.545Z,13.15
2022-10-11T07:00:46.724Z,13.13
2022-10-11T07:01:46.576Z,13.18
2022-10-11T07:02:46.085Z,13.19
2022-10-11T07:03:46.357Z,13.13
2022-10-11T07:04:46.647Z,13.19
2022-10-11T07:05:46.659Z,13.16
2022-10-11T07:06:46.632Z,13.12
2022-10-11T07:07:46.631Z,13.27
2022-10-11T07:08:46.710Z,13.19
2022-10-11T07:09:46.204Z,13.16
2022-10-11T07:10:46.752Z,13.16
2022-10-11T07:11:46.503Z,13.25
2022-10-11T07:12:46.782Z,13.22
2022-10-11T07:13:46.882Z,13.18
2022-10-11T07:14:46.589Z,13.19
2022-10-11T07:15:46.832Z,13.19
2022-10-11T07:16:46.856Z,13.22
2022-10-11T07:17:46.610Z,13.16
2022-10-11T07:18:46.390Z,13.13
2022-10-11T07:19:46.635Z,13.25
2022-10-11T07:20:46.709Z,13.19
2022-10-11T07:21:46.422Z,13.16
2022-10-11T07:22:47.000Z,13.3
2022-10-11T07:23:46.969Z,13.27
2022-10-11T07:24:46.760Z,13.28
2022-10-11T07:25:47.075Z,13.27
2022-10-11T07:26:47.035Z,13.3
2022-10-11T07:27:46.784Z,13.28
2022-10-11T07:28:47.336Z,13.23
2022-10-11T07:29:47.128Z,13.23
2022-10-11T07:30:47.090Z,13.28
2022-10-11T07:31:46.601Z,13.3
2022-10-11T07:32:47.150Z,13.28
2022-10-11T07:33:47.154Z,13.31
2022-10-11T07:34:47.163Z,13.37
2022-10-11T07:35:52.061Z,13.41
2022-10-11T07:36:47.200Z,13.3
2022-10-11T07:37:47.213Z,13.42
2022-10-11T07:38:47.332Z,13.39
2022-10-11T07:39:47.250Z,13.39
2022-10-11T07:40:47.005Z,13.39
2022-10-11T07:41:50.837Z,13.37
2022-10-11T07:42:47.306Z,13.28
2022-10-11T07:43:47.351Z,13.44
2022-10-11T07:44:47.330Z,13.38
2022-10-11T07:45:47.381Z,13.38
2022-10-11T07:46:47.377Z,13.37
2022-10-11T07:47:47.143Z,13.44
2022-10-11T07:48:47.419Z,13.41
2022-10-11T07:49:47.432Z,13.39
2022-10-11T07:50:47.190Z,13.41
2022-10-11T07:51:47.459Z,13.39
2022-10-11T07:52:47.219Z,13.52
2022-10-11T07:53:47.239Z,13.46
2022-10-11T07:54:47.407Z,13.5
2022-10-11T07:55:47.530Z,13.46
2022-10-11T07:56:47.595Z,13.41
2022-10-11T07:57:47.319Z,13.49
2022-10-11T07:58:47.582Z,13.44
2022-10-11T07:59:52.700Z,13.42
2022-10-11T08:00:47.507Z,13.52
2022-10-11T08:01:47.831Z,13.47
2022-10-11T08:02:47.397Z,13.5
2022-10-11T08:03:47.676Z,13.49
2022-10-11T08:04:47.690Z,13.5
2022-10-11T08:05:47.711Z,13.44
2022-10-11T08:06:53.395Z,13.44
2022-10-11T08:07:47.688Z,13.53
2022-10-11T08:08:47.513Z,13.53
2022-10-11T08:09:47.790Z,13.56
2022-10-11T08:10:47.587Z,13.52
2022-10-11T08:11:47.546Z,13.54
2022-10-11T08:12:47.314Z,13.54
2022-10-11T08:13:47.893Z,13.57
2022-10-11T08:14:47.605Z,13.5
2022-10-11T08:15:47.890Z,13.53
2022-10-11T08:16:47.905Z,13.57
2022-10-11T08:17:47.707Z,13.57
2022-10-11T08:18:47.416Z,13.54
2022-10-11T08:19:47.956Z,13.65
2022-10-11T08:20:47.713Z,13.59
2022-10-11T08:21:47.733Z,13.63
2022-10-11T08:22:48.038Z,13.67
2022-10-11T08:23:48.024Z,13.75
2022-10-11T08:24:48.040Z,13.67
2022-10-11T08:25:47.803Z,13.67
2022-10-11T08:26:48.126Z,13.7
2022-10-11T08:27:48.102Z,13.81
2022-10-11T08:28:48.069Z,13.79
2022-10-11T08:29:48.135Z,13.72
2022-10-11T08:30:48.151Z,13.74
2022-10-11T08:31:47.907Z,13.81
2022-10-11T08:32:47.929Z,13.74
2022-10-11T08:33:48.245Z,13.75
2022-10-11T08:34:47.965Z,13.74
2022-10-11T08:35:47.991Z,13.85
2022-10-11T08:36:48.254Z,13.77
2022-10-11T08:37:48.263Z,13.78
2022-10-11T08:38:48.065Z,13.79
2022-10-11T08:39:48.046Z,13.92
2022-10-11T08:40:48.077Z,13.87
2022-10-11T08:41:48.366Z,13.85
2022-10-11T08:42:48.162Z,13.78
2022-10-11T08:43:48.118Z,13.87
2022-10-11T08:45:15.097Z,13.85
2022-10-11T08:45:48.430Z,14
2022-10-11T08:46:48.185Z,13.99
2022-10-11T08:47:48.195Z,13.95
2022-10-11T08:48:48.470Z,14.05
2022-10-11T08:49:48.513Z,14.03
2022-10-11T08:50:48.504Z,13.95
2022-10-11T08:51:48.264Z,14.1
2022-10-11T08:52:48.547Z,13.99
2022-10-11T08:53:48.573Z,14.05
2022-10-11T08:54:48.591Z,14.04
2022-10-11T08:55:48.346Z,14.05
2022-10-11T08:56:48.619Z,14.04
2022-10-11T08:57:48.383Z,14.08
2022-10-11T08:58:48.722Z,14.07
2022-10-11T08:59:48.411Z,14.11
2022-10-11T09:00:48.707Z,14.11
2022-10-11T09:01:48.484Z,14.14
2022-10-11T09:03:12.346Z,14.07
2022-10-11T09:03:48.735Z,14.15
2022-10-11T09:04:48.759Z,14.18
2022-10-11T09:05:48.544Z,14.1
2022-10-11T09:06:48.297Z,14.18
2022-10-11T09:07:48.562Z,14.12
2022-10-11T09:08:48.578Z,14.18
2022-10-11T09:09:48.853Z,14.22
2022-10-11T09:10:48.630Z,14.22
2022-10-11T09:11:48.640Z,14.18
2022-10-11T09:12:48.899Z,14.23
2022-10-11T09:13:49.026Z,14.2
2022-10-11T09:14:49.006Z,14.2
2022-10-11T09:15:48.985Z,14.26
2022-10-11T09:16:48.975Z,14.29
2022-10-11T09:17:48.484Z,14.2
2022-10-11T09:18:48.502Z,14.26
2022-10-11T09:19:49.026Z,14.32
2022-10-11T09:20:49.052Z,14.25
2022-10-11T09:21:49.092Z,14.23
2022-10-11T09:22:49.085Z,14.36
2022-10-11T09:23:49.112Z,14.32
2022-10-11T09:24:49.130Z,14.3
2022-10-11T09:25:48.884Z,14.4
2022-10-11T09:26:49.155Z,14.36
2022-10-11T09:28:07.296Z,14.35
2022-10-11T09:28:49.330Z,14.41
2022-10-11T09:29:49.208Z,14.43
2022-10-11T09:30:49.323Z,14.44
2022-10-11T09:31:49.000Z,14.28
2022-10-11T09:32:49.266Z,14.41
2022-10-11T09:33:49.044Z,14.29
2022-10-11T09:34:49.303Z,14.4
2022-10-11T09:35:49.060Z,14.3
2022-10-11T09:36:49.076Z,14.41
2022-10-11T09:37:49.431Z,14.41
2022-10-11T09:38:49.114Z,14.37
2022-10-11T09:39:49.129Z,14.33
2022-10-11T09:40:49.405Z,14.45
2022-10-11T09:41:48.911Z,14.51
2022-10-11T09:42:49.193Z,14.54
2022-10-11T09:43:49.642Z,14.44
2022-10-11T09:44:49.228Z,14.58
2022-10-11T09:45:54.125Z,14.53
2022-10-11T09:46:49.511Z,14.59
2022-10-11T09:47:49.541Z,14.6
2022-10-11T09:48:49.556Z,14.62
2022-10-11T09:49:49.347Z,14.58
2022-10-11T09:50:49.345Z,14.7
2022-10-11T09:51:49.621Z,14.66
2022-10-11T09:52:49.372Z,14.73
2022-10-11T09:53:49.414Z,14.65
2022-10-11T09:54:49.663Z,14.69
2022-10-11T09:55:49.427Z,14.7
2022-10-11T09:56:49.446Z,14.7
2022-10-11T09:57:49.722Z,14.78
2022-10-11T09:58:49.740Z,14.77
2022-10-11T09:59:49.757Z,14.78
2022-10-11T10:00:49.778Z,14.78
2022-10-11T10:01:49.854Z,14.81
2022-10-11T10:02:49.571Z,14.77
2022-10-11T10:03:49.838Z,14.79
2022-10-11T10:04:49.591Z,14.69
2022-10-11T10:05:49.605Z,14.79
2022-10-11T10:06:49.627Z,14.78
2022-10-11T10:07:49.899Z,14.7
2022-10-11T10:08:49.925Z,14.77
2022-10-11T10:09:50.203Z,14.77
2022-10-11T10:10:49.457Z,14.72
2022-10-11T10:11:49.985Z,14.79
2022-10-11T10:12:49.490Z,14.77
2022-10-11T10:13:50.114Z,14.79
2022-10-11T10:14:50.039Z,14.73
2022-10-11T10:15:50.048Z,14.82
2022-10-11T10:16:50.067Z,14.85
2022-10-11T10:17:50.149Z,14.85
2022-10-11T10:18:50.110Z,14.78
2022-10-11T10:19:50.071Z,14.84
2022-10-11T10:20:49.884Z,14.84
2022-10-11T10:21:49.907Z,14.91
2022-10-11T10:22:49.668Z,14.82
2022-10-11T10:23:50.197Z,14.73
2022-10-11T10:24:49.963Z,14.79
2022-10-11T10:25:50.010Z,14.81
2022-10-11T10:26:50.258Z,14.85
2022-10-11T10:27:50.009Z,14.88
2022-10-11T10:28:50.623Z,14.88
2022-10-11T10:29:50.328Z,14.89
2022-10-11T10:30:50.376Z,14.94
2022-10-11T10:32:17.966Z,14.88
2022-10-11T10:32:53.320Z,14.86
2022-10-11T10:33:50.122Z,14.91
2022-10-11T10:34:50.139Z,14.85
2022-10-11T10:35:50.171Z,14.91
2022-10-11T10:36:50.179Z,14.89
2022-10-11T10:37:50.445Z,15
2022-10-11T10:38:55.844Z,14.99
2022-10-11T10:39:50.243Z,14.89
2022-10-11T10:40:50.258Z,14.91
2022-10-11T10:41:50.344Z,14.97
2022-10-11T10:42:50.537Z,14.99
2022-10-11T10:43:50.309Z,14.96
2022-10-11T10:44:50.330Z,15
2022-10-11T10:45:50.614Z,14.96
2022-10-11T10:46:50.357Z,14.99
2022-10-11T10:47:50.661Z,15
2022-10-11T10:50:09.098Z,15
2022-10-11T10:50:18.689Z,15.02
2022-10-11T10:51:19.207Z,15.07
2022-10-11T10:52:18.712Z,15.06
2022-10-11T10:53:18.994Z,15.11
2022-10-11T10:54:19.264Z,15.04
2022-10-11T10:55:19.278Z,15.09
2022-10-11T10:56:18.800Z,15.09
2022-10-11T10:57:19.340Z,15.11
2022-10-11T10:58:23.470Z,15.09
2022-10-11T10:59:19.361Z,15.1
2022-10-11T11:00:19.199Z,15.02
2022-10-11T11:01:19.748Z,15.09
2022-10-11T11:02:44.673Z,15.09
2022-10-11T11:03:19.444Z,15.07
2022-10-11T11:04:19.188Z,15.14
2022-10-11T11:05:19.533Z,15.18
2022-10-11T11:06:18.973Z,15.17
2022-10-11T11:07:19.253Z,15.15
2022-10-11T11:08:19.269Z,15.06
2022-10-11T11:09:19.280Z,15.14
2022-10-11T11:10:19.450Z,15.11
2022-10-11T11:11:19.581Z,15.07
2022-10-11T11:12:19.598Z,15.18
2022-10-11T11:13:19.392Z,15.15
2022-10-11T11:14:19.832Z,15.06
2022-10-11T11:15:24.758Z,15.1
2022-10-11T11:16:19.667Z,15.03
2022-10-11T11:17:19.697Z,15.09
2022-10-11T11:18:19.454Z,15.06
2022-10-11T11:19:19.245Z,15.09
2022-10-11T11:20:19.502Z,15.15
2022-10-11T11:21:19.808Z,15.15
2022-10-11T11:22:19.798Z,15.17
2022-10-11T11:23:19.547Z,15.18
2022-10-11T11:24:19.832Z,15.18
2022-10-11T11:25:19.584Z,15.19
2022-10-11T11:26:19.865Z,15.17
2022-10-11T11:27:19.881Z,15.18
2022-10-11T11:28:20.048Z,15.22
2022-10-11T11:29:19.680Z,15.22
2022-10-11T11:30:19.418Z,15.22
2022-10-11T11:31:19.696Z,15.18
2022-10-11T11:32:19.716Z,15.24
2022-10-11T11:33:19.742Z,15.15
2022-10-11T11:34:20.012Z,15.19
2022-10-11T11:35:19.778Z,15.18
2022-10-11T11:36:20.041Z,15.28
2022-10-11T11:37:19.850Z,15.28
2022-10-11T11:38:19.822Z,15.21
2022-10-11T11:39:20.099Z,15.28
2022-10-11T11:40:19.874Z,15.31
2022-10-11T11:41:20.144Z,15.33
2022-10-11T11:42:19.639Z,15.28
2022-10-11T11:43:19.923Z,15.29
2022-10-11T11:44:23.839Z,15.42
2022-10-11T11:45:20.236Z,15.35
2022-10-11T11:46:19.712Z,15.4
2022-10-11T11:47:20.269Z,15.47
2022-10-11T11:48:20.269Z,15.47
2022-10-11T11:49:20.037Z,15.52
2022-10-11T11:50:20.306Z,15.43
2022-10-11T11:51:20.070Z,15.51
2022-10-11T11:52:20.354Z,15.54
2022-10-11T11:53:20.413Z,15.57
2022-10-11T11:54:20.375Z,15.57
2022-10-11T11:55:20.402Z,15.64
2022-10-11T11:56:19.901Z,15.65
2022-10-11T11:57:20.445Z,15.67
2022-10-11T11:58:20.467Z,15.7
2022-10-11T11:59:20.502Z,15.68
2022-10-11T12:00:20.491Z,15.67
2022-10-11T12:01:20.556Z,15.75
2022-10-11T12:02:20.629Z,15.76
2022-10-11T12:03:20.293Z,15.83
2022-10-11T12:04:20.563Z,15.76
2022-10-11T12:05:20.589Z,15.77
2022-10-11T12:06:20.628Z,15.76
2022-10-11T12:07:21.828Z,15.82
2022-10-11T12:08:20.391Z,15.82
2022-10-11T12:09:20.726Z,15.86
2022-10-11T12:10:20.165Z,15.84
2022-10-11T12:11:20.188Z,15.76
2022-10-11T12:12:20.208Z,15.82
2022-10-11T12:13:20.743Z,15.88
2022-10-11T12:14:20.609Z,15.82
2022-10-11T12:15:20.779Z,15.86
2022-10-11T12:16:20.537Z,15.84
2022-10-11T12:17:20.856Z,15.86
2022-10-11T12:18:20.837Z,15.84
2022-10-11T12:19:20.869Z,15.9
2022-10-11T12:20:20.880Z,15.86
2022-10-11T12:21:20.895Z,15.91
2022-10-11T12:22:20.910Z,15.91
2022-10-11T12:23:24.772Z,15.98
2022-10-11T12:24:20.698Z,16.02
2022-10-11T12:25:23.590Z,15.97
2022-10-11T12:26:20.726Z,16.1
2022-10-11T12:27:21.003Z,16.1
2022-10-11T12:28:21.214Z,16.13
2022-10-11T12:29:23.454Z,16.08
2022-10-11T12:30:20.802Z,16.05
2022-10-11T12:31:21.075Z,16.05
2022-10-11T12:32:21.100Z,16.09
2022-10-11T12:33:20.896Z,16.1
2022-10-11T12:34:21.167Z,16.05
2022-10-11T12:35:21.189Z,16.09
2022-10-11T12:36:20.682Z,16.05
2022-10-11T12:37:20.682Z,16.13
2022-10-11T12:38:20.969Z,16.13
2022-10-11T12:39:21.249Z,16.17
2022-10-11T12:40:21.263Z,16.16
2022-10-11T12:41:21.331Z,16.17
2022-10-11T12:42:21.051Z,16.1
2022-10-11T12:43:21.055Z,16.12
2022-10-11T12:44:21.081Z,16.15
2022-10-11T12:45:21.378Z,16.26
2022-10-11T12:46:21.366Z,16.15
2022-10-11T12:47:21.393Z,16.23
2022-10-11T12:48:21.406Z,16.23
2022-10-11T12:49:21.450Z,16.2
2022-10-11T12:50:20.949Z,16.2
2022-10-11T12:51:21.481Z,16.21
2022-10-11T12:52:21.232Z,16.21
2022-10-11T12:53:21.508Z,16.23
2022-10-11T12:54:41.693Z,16.2
2022-10-11T12:55:21.543Z,16.16
2022-10-11T12:56:21.305Z,16.2